Shin Puropan Maru — JG5508 — position and weather

sailwx.info

Track history (hours):
 
Tides and Currents Weather Stations Pressure Air Temp Water Temp Dewpoint Dewpoint Depression Visibility Wind Speed Wind Dir Waves Ship Positions

Shin Puropan Maru

Last reported at 2017-Mar-28 08:25 UTC. Time now 2017-Mar-28 19:38 UTC.
Position N 34°02' E 135°01'.

Length 66 m; draft 3.6 m.

Type: Ship (hazmat cat A). MMSI: 431100348.

Date/timePositionNaut miles runAvg speedWind from/ knotsBaromVisibWave heightAir tempDewpointWater temp
2017-Mar-28 08:25N 34°02' E 135°01'1112.7
2017-Mar-28 07:33N 34°13' E 134°59'1512.3
2017-Mar-28 06:20N 34°26' E 135°07'1012.6
2017-Mar-28 05:33N 34°33' E 135°16'4 3.0
2017-Mar-28 04:09N 34°36' E 135°19'0 0.0
2017-Mar-28 03:27N 34°36' E 135°19'3 3.0
2017-Mar-28 02:33N 34°36' E 135°23'3 0.7
2017-Mar-27 22:33N 34°35' E 135°25'2 1.2
2017-Mar-27 20:31N 34°36' E 135°23'0 0.1
2017-Mar-27 19:31N 34°36' E 135°23'0 0.0
2017-Mar-27 18:19N 34°36' E 135°23'0 0.0
2017-Mar-27 17:31N 34°36' E 135°23'0 0.0
2017-Mar-27 16:31N 34°36' E 135°23'0 0.0
2017-Mar-27 15:13N 34°36' E 135°23'2 3.0
2017-Mar-27 14:33N 34°35' E 135°21'1110.8
2017-Mar-27 13:32N 34°27' E 135°11'2110.7
2017-Mar-27 11:33N 34°08' E 135°00'1 0.0
2017-Mar-25 12:32N 34°08' E 134°60'2311.4
2017-Mar-25 10:33N 34°28' E 135°11'1212.5
2017-Mar-25 09:33N 34°36' E 135°22'1 0.4
2017-Mar-25 05:33N 34°36' E 135°24'1 1.4
2017-Mar-25 04:32N 34°35' E 135°23'2 2.1
2017-Mar-25 03:33N 34°33' E 135°23'2 0.5
2017-Mar-24 23:31N 34°32' E 135°25'3 0.6
2017-Mar-24 18:30N 34°34' E 135°23'0 0.0
2017-Mar-24 17:30N 34°34' E 135°23'0 0.0
2017-Mar-24 14:30N 34°34' E 135°23'0 0.0
2017-Mar-24 13:24N 34°34' E 135°23'0 0.0
2017-Mar-24 11:30N 34°34' E 135°23'0 0.0
2017-Mar-24 10:24N 34°34' E 135°23'0 0.0
2017-Mar-24 09:30N 34°34' E 135°23'0 0.0
2017-Mar-24 07:30N 34°34' E 135°23'0 0.0
2017-Mar-24 03:24N 34°34' E 135°23'2 2.6
2017-Mar-24 02:33N 34°36' E 135°25'2 0.5
2017-Mar-23 23:09N 34°34' E 135°26'3 5.8
2017-Mar-23 22:33N 34°36' E 135°22'1111.5
2017-Mar-23 21:33N 34°28' E 135°12'1411.7
2017-Mar-23 20:22N 34°18' E 135°00'911.6
2017-Mar-23 19:33N 34°09' E 135°01'20 0.5
2017-Mar-22 02:25N 34°27' E 135°08'1112.2
2017-Mar-22 01:33N 34°35' E 135°17'4 4.1
2017-Mar-22 00:31N 34°39' E 135°19'0 0.0
2017-Mar-21 23:31N 34°39' E 135°19'0 0.0
2017-Mar-21 22:31N 34°39' E 135°19'0 0.0
2017-Mar-21 21:25N 34°39' E 135°19'0 0.0
2017-Mar-21 20:25N 34°39' E 135°19'0 0.0
2017-Mar-21 19:31N 34°39' E 135°19'0 0.0
2017-Mar-21 18:25N 34°39' E 135°19'0 0.0
2017-Mar-21 17:31N 34°39' E 135°19'0 0.0
2017-Mar-21 16:31N 34°39' E 135°19'0 0.0
2017-Mar-21 15:31N 34°39' E 135°19'0 0.0
2017-Mar-21 14:25N 34°39' E 135°19'0 0.0
2017-Mar-21 13:31N 34°39' E 135°19'0 0.0
2017-Mar-21 12:31N 34°39' E 135°19'0 0.0
2017-Mar-21 11:31N 34°39' E 135°19'0 0.0
2017-Mar-21 10:31N 34°39' E 135°19'0 0.0
2017-Mar-21 09:31N 34°39' E 135°19'0 0.0
2017-Mar-21 08:31N 34°39' E 135°19'0 0.0
2017-Mar-21 07:31N 34°39' E 135°19'0 0.0
2017-Mar-21 06:25N 34°39' E 135°19'0 0.1
2017-Mar-21 05:31N 34°39' E 135°19'0 0.0
2017-Mar-21 04:31N 34°39' E 135°19'0 0.0
2017-Mar-21 03:31N 34°39' E 135°19'6 6.5
2017-Mar-21 02:32N 34°35' E 135°25'1 0.2
2017-Mar-20 23:18N 34°34' E 135°26'1 0.7
2017-Mar-20 22:33N 34°35' E 135°25'8 7.7
2017-Mar-20 21:32N 34°32' E 135°17'1111.5
2017-Mar-20 20:32N 34°24' E 135°07'1110.7
2017-Mar-20 19:27N 34°14' E 134°60'8 0.2
2017-Mar-19 05:27N 34°06' E 135°00'2010.7
2017-Mar-19 03:31N 34°26' E 135°07'1211.8
2017-Mar-19 02:32N 34°33' E 135°18'7 1.6
2017-Mar-18 22:33N 34°34' E 135°26'2 2.0
2017-Mar-18 21:21N 34°35' E 135°23'0 0.0
2017-Mar-18 20:33N 34°35' E 135°23'0 0.0
2017-Mar-18 19:33N 34°35' E 135°23'0 0.0
2017-Mar-18 18:33N 34°35' E 135°23'0 0.0
2017-Mar-18 17:33N 34°35' E 135°23'0 0.0
2017-Mar-18 16:33N 34°35' E 135°23'0 0.1
2017-Mar-18 15:33N 34°35' E 135°23'1111.1
2017-Mar-18 14:33N 34°28' E 135°13'1412.5
2017-Mar-18 13:25N 34°18' E 134°60'1112.2
2017-Mar-18 12:30N 34°07' E 135°00'  
Track history (hours):
 
Tides and Currents Weather Stations Pressure Air Temp Water Temp Dewpoint Dewpoint Depression Visibility Wind Speed Wind Dir Waves Ship Positions

Shin Puropan Maru

Last reported at 2017-Mar-28 08:25 UTC. Time now 2017-Mar-28 19:38 UTC.
Position N 34°02' E 135°01'.

Length 66 m; draft 3.6 m.

Type: Ship (hazmat cat A). MMSI: 431100348.

Date/timePositionNaut miles runAvg speedWind from/ knotsBaromVisibWave heightAir tempDewpointWater temp
2017-Mar-28 08:25N 34°02' E 135°01'1112.7
2017-Mar-28 07:33N 34°13' E 134°59'1512.3
2017-Mar-28 06:20N 34°26' E 135°07'1012.6
2017-Mar-28 05:33N 34°33' E 135°16'4 3.0
2017-Mar-28 04:09N 34°36' E 135°19'0 0.0
2017-Mar-28 03:27N 34°36' E 135°19'3 3.0
2017-Mar-28 02:33N 34°36' E 135°23'3 0.7
2017-Mar-27 22:33N 34°35' E 135°25'2 1.2
2017-Mar-27 20:31N 34°36' E 135°23'0 0.1
2017-Mar-27 19:31N 34°36' E 135°23'0 0.0
2017-Mar-27 18:19N 34°36' E 135°23'0 0.0
2017-Mar-27 17:31N 34°36' E 135°23'0 0.0
2017-Mar-27 16:31N 34°36' E 135°23'0 0.0
2017-Mar-27 15:13N 34°36' E 135°23'2 3.0
2017-Mar-27 14:33N 34°35' E 135°21'1110.8
2017-Mar-27 13:32N 34°27' E 135°11'2110.7
2017-Mar-27 11:33N 34°08' E 135°00'1 0.0
2017-Mar-25 12:32N 34°08' E 134°60'2311.4
2017-Mar-25 10:33N 34°28' E 135°11'1212.5
2017-Mar-25 09:33N 34°36' E 135°22'1 0.4
2017-Mar-25 05:33N 34°36' E 135°24'1 1.4
2017-Mar-25 04:32N 34°35' E 135°23'2 2.1
2017-Mar-25 03:33N 34°33' E 135°23'2 0.5
2017-Mar-24 23:31N 34°32' E 135°25'3 0.6
2017-Mar-24 18:30N 34°34' E 135°23'0 0.0
2017-Mar-24 17:30N 34°34' E 135°23'0 0.0
2017-Mar-24 14:30N 34°34' E 135°23'0 0.0
2017-Mar-24 13:24N 34°34' E 135°23'0 0.0
2017-Mar-24 11:30N 34°34' E 135°23'0 0.0
2017-Mar-24 10:24N 34°34' E 135°23'0 0.0
2017-Mar-24 09:30N 34°34' E 135°23'0 0.0
2017-Mar-24 07:30N 34°34' E 135°23'0 0.0
2017-Mar-24 03:24N 34°34' E 135°23'2 2.6
2017-Mar-24 02:33N 34°36' E 135°25'2 0.5
2017-Mar-23 23:09N 34°34' E 135°26'3 5.8
2017-Mar-23 22:33N 34°36' E 135°22'1111.5
2017-Mar-23 21:33N 34°28' E 135°12'1411.7
2017-Mar-23 20:22N 34°18' E 135°00'911.6
2017-Mar-23 19:33N 34°09' E 135°01'20 0.5
2017-Mar-22 02:25N 34°27' E 135°08'1112.2
2017-Mar-22 01:33N 34°35' E 135°17'4 4.1
2017-Mar-22 00:31N 34°39' E 135°19'0 0.0
2017-Mar-21 23:31N 34°39' E 135°19'0 0.0
2017-Mar-21 22:31N 34°39' E 135°19'0 0.0
2017-Mar-21 21:25N 34°39' E 135°19'0 0.0
2017-Mar-21 20:25N 34°39' E 135°19'0 0.0
2017-Mar-21 19:31N 34°39' E 135°19'0 0.0
2017-Mar-21 18:25N 34°39' E 135°19'0 0.0
2017-Mar-21 17:31N 34°39' E 135°19'0 0.0
2017-Mar-21 16:31N 34°39' E 135°19'0 0.0
2017-Mar-21 15:31N 34°39' E 135°19'0 0.0
2017-Mar-21 14:25N 34°39' E 135°19'0 0.0
2017-Mar-21 13:31N 34°39' E 135°19'0 0.0
2017-Mar-21 12:31N 34°39' E 135°19'0 0.0
2017-Mar-21 11:31N 34°39' E 135°19'0 0.0
2017-Mar-21 10:31N 34°39' E 135°19'0 0.0
2017-Mar-21 09:31N 34°39' E 135°19'0 0.0
2017-Mar-21 08:31N 34°39' E 135°19'0 0.0
2017-Mar-21 07:31N 34°39' E 135°19'0 0.0
2017-Mar-21 06:25N 34°39' E 135°19'0 0.1
2017-Mar-21 05:31N 34°39' E 135°19'0 0.0
2017-Mar-21 04:31N 34°39' E 135°19'0 0.0
2017-Mar-21 03:31N 34°39' E 135°19'6 6.5
2017-Mar-21 02:32N 34°35' E 135°25'1 0.2
2017-Mar-20 23:18N 34°34' E 135°26'1 0.7
2017-Mar-20 22:33N 34°35' E 135°25'8 7.7
2017-Mar-20 21:32N 34°32' E 135°17'1111.5
2017-Mar-20 20:32N 34°24' E 135°07'1110.7
2017-Mar-20 19:27N 34°14' E 134°60'8 0.2
2017-Mar-19 05:27N 34°06' E 135°00'2010.7
2017-Mar-19 03:31N 34°26' E 135°07'1211.8
2017-Mar-19 02:32N 34°33' E 135°18'7 1.6
2017-Mar-18 22:33N 34°34' E 135°26'2 2.0
2017-Mar-18 21:21N 34°35' E 135°23'0 0.0
2017-Mar-18 20:33N 34°35' E 135°23'0 0.0
2017-Mar-18 19:33N 34°35' E 135°23'0 0.0
2017-Mar-18 18:33N 34°35' E 135°23'0 0.0
2017-Mar-18 17:33N 34°35' E 135°23'0 0.0
2017-Mar-18 16:33N 34°35' E 135°23'0 0.1
2017-Mar-18 15:33N 34°35' E 135°23'1111.1
2017-Mar-18 14:33N 34°28' E 135°13'1412.5
2017-Mar-18 13:25N 34°18' E 134°60'1112.2
2017-Mar-18 12:30N 34°07' E 135°00'  

Dump ship's entire track history